Airfield :
LOGIN :

Register | Disclaimer

   EN    FR    IT 

 










Legend :    VFR   Marginal VFR   IFR   Intensive IFR   Very Intensive IFR
Visi :
Ceiling :
>= 8 km
>= 3000ft
5 to 8 km
1000 to 3000 ft
1500m to 5 km
500 to 1000 ft
800 to 1500m
200 to 500 ft
< 800m
< 200 ft
Symbols :   Thunderstorms  Fog  Heavy snow  Heavy precipitations  Wind > 20 kt
SIGMETs :     Misc.  Thunderstorms  Icing  Turbulence  Mountain Waves  Volcanic Ashes







- Airport Elevation : 80 ft
- IATA code : LPL
- Download approach charts


EGGP - Liverpool John Lennon

CURRENT METAR :
  • 262050Z 27012KT 9999 SCT044 14/08 Q1011

EXPIRED METARs :
  • 262020Z 27011KT 9999 SCT042 14/09 Q1011
  • 261950Z 28012KT 9999 SCT042 15/09 Q1011
  • 261920Z 28014KT 9999 SCT040 15/08 Q1011
  • 261850Z 28012KT 9999 SCT045 14/08 Q1011
  • 261820Z 28013KT 9999 FEW038 15/08 Q1011

TAF TAF EGGP
Valid from the 26 at 18:00 until the 27 at 18:00 UTC


261658Z 2618/2718 28017G27KT 9999 SCT020
BECMG 2618/2621 27012KT
TEMPO 2703/2718 28015G25KT 6000 SHRA BKN014
ATIS : +44 151 907 2000 (option 5 or ext 5150)
Met : +44 871 750 5150
No reported NOTAMs for that airfield.
1 SIGMET reported for the London FIR (EGTT) :
 
Severe mountain waves
EGTT SIGMET 02 VALID 261900/262300 EGRR
EGTT LONDON FIR SEV MTW FCST N OF LINE N5350 W00530 - N5306 E00322 FL030/150 STNR NC=



MET'MAP, your aeronautical weather chart ! - Copyright ORBIFLY December 2007 - Disclaimer

ORBIFLY MET'MAP TEAM :

Programming & Development : Alexandra Zaïnal
Concept & Development : Baudouin d'Aumeries
Co-Development & Prog : Marc-Olivier Méhu
Technical & hardware support : Manuel Goepfert

Contact : metmap@orbifly.com




SOURCES & CREDITS :

   NOAA